Time;durP1;ratioP1;P1;durP2;ratioP2;P2;SDS_P1;SDS_P2;PMS_P1;PMS_P2;Temp;Humidity;BMP_temperature;BMP_pressure;BME280_temperature;BME280_humidity;BME280_pressure;Samples;Min_cycle;Max_cycle;Signal;HPM_P1;HPM_P2
2023/05/05 00:01:05;;;;;;;13.70;11.50;;;;;;;14.77;55.87;96323.25;4971837;28;20437;-69
2023/05/05 00:03:33;;;;;;;18.20;11.70;;;;;;;14.80;56.03;96323.06;4971743;28;20767;-73
2023/05/05 00:05:58;;;;;;;17.93;11.40;;;;;;;14.75;56.26;96319.00;4971740;28;20180;-69
2023/05/05 00:08:24;;;;;;;13.20;10.87;;;;;;;14.78;56.30;96324.94;4971821;28;20815;-68
2023/05/05 00:10:51;;;;;;;20.20;12.10;;;;;;;14.71;56.52;96317.50;4972442;28;20197;-69
2023/05/05 00:13:17;;;;;;;13.63;11.53;;;;;;;14.73;56.60;96321.75;4972156;28;20181;-67
2023/05/05 00:15:43;;;;;;;17.43;10.93;;;;;;;14.64;56.74;96316.19;4971860;28;20424;-68
2023/05/05 00:18:09;;;;;;;23.47;11.87;;;;;;;14.74;56.56;96317.31;4971435;28;20401;-71
2023/05/05 00:20:35;;;;;;;21.70;11.47;;;;;;;14.67;56.56;96308.94;4971458;28;20446;-69
2023/05/05 00:23:01;;;;;;;13.70;11.67;;;;;;;14.78;56.08;96313.53;4971578;28;20200;-72
2023/05/05 00:25:26;;;;;;;15.33;12.97;;;;;;;14.80;55.86;96309.00;4971539;28;20178;-68
2023/05/05 00:27:52;;;;;;;13.63;11.63;;;;;;;14.67;56.50;96305.41;4971410;28;20209;-69
2023/05/05 00:30:17;;;;;;;12.03;10.83;;;;;;;14.56;56.72;96316.66;4971423;28;20280;-72
2023/05/05 00:32:43;;;;;;;15.37;12.30;;;;;;;14.61;56.70;96310.13;4971132;28;20177;-68
2023/05/05 00:35:09;;;;;;;15.50;11.77;;;;;;;14.40;56.96;96306.97;4971555;28;20197;-70
2023/05/05 00:37:34;;;;;;;15.00;11.70;;;;;;;14.46;57.25;96304.94;4970958;28;20178;-70
2023/05/05 00:40:00;;;;;;;13.60;12.07;;;;;;;14.28;57.58;96306.88;4970952;28;21018;-70
2023/05/05 00:42:26;;;;;;;15.97;11.63;;;;;;;14.16;57.87;96304.03;4971314;28;20261;-73
2023/05/05 00:44:51;;;;;;;16.13;12.57;;;;;;;14.24;58.04;96300.94;4971244;28;20209;-70
2023/05/05 00:47:18;;;;;;;15.60;11.83;;;;;;;14.19;57.87;96305.63;4970735;28;20643;-70
2023/05/05 00:49:44;;;;;;;15.70;11.30;;;;;;;14.15;57.94;96310.25;4971030;28;20172;-70
2023/05/05 00:52:10;;;;;;;19.53;12.07;;;;;;;14.21;58.20;96314.31;4970925;28;20524;-70
2023/05/05 00:54:36;;;;;;;19.97;12.00;;;;;;;14.21;57.60;96308.19;4970964;28;20457;-71
2023/05/05 00:57:02;;;;;;;14.93;12.30;;;;;;;14.17;57.80;96312.78;4983708;28;20192;-71
2023/05/05 00:59:30;;;;;;;13.23;11.60;;;;;;;14.15;57.85;96312.91;4990481;28;20830;-70
2023/05/05 01:01:55;;;;;;;14.83;11.30;;;;;;;14.12;57.96;96304.31;4999842;28;20506;-69
2023/05/05 01:04:21;;;;;;;12.00;10.53;;;;;;;14.10;58.13;96309.69;4990237;28;20482;-70
2023/05/05 01:07:28;;;;;;;13.27;11.63;;;;;;;14.18;57.78;96311.88;4990016;28;20165;-70
2023/05/05 01:10:26;;;;;;;17.77;11.93;;;;;;;14.01;58.03;96306.72;4972843;28;20196;-70
2023/05/05 01:13:33;;;;;;;23.40;12.63;;;;;;;14.00;58.32;96310.31;4973106;28;20424;-70
2023/05/05 01:16:17;;;;;;;25.50;14.90;;;;;;;14.04;57.94;96299.50;4970180;28;20544;-70
2023/05/05 01:18:58;;;;;;;16.47;12.80;;;;;;;13.99;58.62;96301.56;4982453;28;20848;-71
2023/05/05 01:21:31;;;;;;;14.27;11.50;;;;;;;13.93;57.86;96307.19;4989720;28;20467;-71
2023/05/05 01:24:24;;;;;;;17.77;12.03;;;;;;;13.97;58.01;96301.63;4989824;28;20420;-71
2023/05/05 01:27:11;;;;;;;15.23;11.10;;;;;;;13.89;58.19;96308.28;4989434;28;20444;-68
2023/05/05 01:30:08;;;;;;;12.27;10.30;;;;;;;13.91;58.44;96301.16;4989815;28;20454;-69
2023/05/05 01:32:41;;;;;;;11.60;10.50;;;;;;;13.97;58.00;96313.97;4989591;28;20428;-69
2023/05/05 01:35:12;;;;;;;16.63;11.67;;;;;;;14.11;57.78;96308.75;4989627;28;20897;-69
2023/05/05 01:38:04;;;;;;;14.40;11.23;;;;;;;13.89;58.48;96313.56;4989285;28;20500;-69
2023/05/05 01:40:37;;;;;;;14.63;11.17;;;;;;;13.76;59.20;96313.44;4989079;28;20458;-71
2023/05/05 01:43:05;;;;;;;14.00;11.43;;;;;;;13.76;58.79;96303.75;4987274;28;20444;-68
2023/05/05 01:45:34;;;;;;;17.40;12.07;;;;;;;13.85;58.03;96298.88;4969282;28;20456;-73
2023/05/05 01:48:01;;;;;;;14.80;11.07;;;;;;;13.74;58.73;96304.78;4975205;28;20856;-69
2023/05/05 01:50:27;;;;;;;12.60;11.27;;;;;;;13.75;59.08;96304.69;4985776;28;20425;-68
2023/05/05 01:52:55;;;;;;;12.67;10.97;;;;;;;13.74;58.53;96296.84;4969444;28;20536;-70
2023/05/05 01:55:24;;;;;;;19.57;11.60;;;;;;;13.66;59.37;96301.75;4976429;28;20474;-68
2023/05/05 01:57:50;;;;;;;18.37;11.30;;;;;;;13.66;59.02;96305.22;4988887;28;20499;-70
2023/05/05 02:00:18;;;;;;;14.10;10.67;;;;;;;13.59;59.27;96306.50;4989039;28;20543;-72
2023/05/05 02:02:48;;;;;;;13.47;11.10;;;;;;;13.65;58.75;96311.41;4989048;28;20929;-68
2023/05/05 02:05:15;;;;;;;12.00;10.40;;;;;;;13.72;58.83;96312.78;4969818;28;20408;-71
2023/05/05 02:07:43;;;;;;;13.10;11.70;;;;;;;13.54;59.26;96321.75;4969165;28;20500;-69
2023/05/05 02:10:11;;;;;;;15.17;12.30;;;;;;;13.57;59.46;96311.03;4969505;28;20413;-69
2023/05/05 02:12:39;;;;;;;15.23;12.17;;;;;;;13.55;59.30;96313.72;4969572;28;20766;-67
2023/05/05 02:15:06;;;;;;;15.90;11.73;;;;;;;13.53;59.40;96312.13;4969422;28;20424;-69
2023/05/05 02:17:32;;;;;;;12.13;10.87;;;;;;;13.52;59.82;96313.06;4969471;28;20401;-69
2023/05/05 02:19:59;;;;;;;16.13;11.47;;;;;;;13.58;59.37;96317.13;4969749;28;21017;-70
2023/05/05 02:22:25;;;;;;;13.90;11.20;;;;;;;13.50;59.27;96309.66;4989048;28;20173;-69
2023/05/05 02:24:51;;;;;;;13.23;11.70;;;;;;;13.49;59.76;96310.63;4988769;28;20408;-72
2023/05/05 02:27:19;;;;;;;14.83;12.57;;;;;;;13.36;60.44;96307.81;4988322;28;20628;-72
2023/05/05 02:29:57;;;;;;;14.57;11.53;;;;;;;13.33;60.29;96308.00;5003508;28;20654;-72
2023/05/05 02:32:30;;;;;;;13.80;11.37;;;;;;;13.33;60.68;96308.00;4988459;28;20414;-70
2023/05/05 02:35:00;;;;;;;15.10;12.07;;;;;;;13.34;61.14;96314.94;4988481;28;20436;-72
2023/05/05 02:37:28;;;;;;;12.40;11.07;;;;;;;13.26;60.62;96311.88;4987923;28;20419;-69
2023/05/05 02:40:00;;;;;;;14.80;13.03;;;;;;;13.20;61.33;96314.84;4988526;28;20420;-69
2023/05/05 02:42:30;;;;;;;17.67;11.93;;;;;;;13.24;61.86;96303.22;4988502;28;21006;-72
2023/05/05 02:44:58;;;;;;;16.40;12.40;;;;;;;13.06;62.30;96311.22;4988513;28;20494;-70
2023/05/05 02:47:34;;;;;;;14.43;11.07;;;;;;;13.08;62.29;96309.31;4984162;28;20487;-69
2023/05/05 02:50:00;;;;;;;13.93;12.40;;;;;;;13.16;62.80;96308.91;4979719;28;20447;-70
2023/05/05 02:52:25;;;;;;;13.80;11.77;;;;;;;13.13;62.36;96309.94;4974233;28;20444;-72
2023/05/05 02:54:51;;;;;;;11.43;10.03;;;;;;;12.97;63.14;96310.84;4971345;28;20681;-71
2023/05/05 02:57:19;;;;;;;14.80;11.60;;;;;;;12.96;62.80;96306.53;4976188;28;20180;-69
2023/05/05 03:00:04;;;;;;;14.13;12.00;;;;;;;13.00;63.07;96308.06;4980950;28;20701;-71
2023/05/05 03:02:55;;;;;;;13.97;11.60;;;;;;;12.98;62.84;96310.75;4987478;28;20451;-69
2023/05/05 03:05:34;;;;;;;17.90;12.00;;;;;;;12.90;63.78;96316.47;4969465;28;20782;-72
2023/05/05 03:08:16;;;;;;;13.40;11.70;;;;;;;12.88;64.51;96317.47;4968818;28;20468;-71
2023/05/05 03:10:56;;;;;;;12.63;11.13;;;;;;;12.84;63.75;96314.16;4968765;28;20488;-71
2023/05/05 03:13:25;;;;;;;14.60;12.40;;;;;;;12.88;63.88;96320.97;4987506;28;20451;-70
2023/05/05 03:15:52;;;;;;;15.70;12.90;;;;;;;12.91;63.42;96314.66;4987842;28;20411;-70
2023/05/05 03:18:21;;;;;;;14.80;11.80;;;;;;;12.99;63.22;96319.50;4987924;28;20415;-69
2023/05/05 03:20:47;;;;;;;19.33;12.00;;;;;;;12.92;63.17;96317.22;4987828;28;20431;-68
2023/05/05 03:23:13;;;;;;;17.17;12.27;;;;;;;12.76;63.97;96316.34;4987720;28;20412;-68
2023/05/05 03:25:46;;;;;;;14.90;12.43;;;;;;;12.79;63.68;96315.34;4987766;28;20412;-70
2023/05/05 03:28:13;;;;;;;15.63;12.00;;;;;;;12.79;64.48;96312.72;4986531;28;20517;-70
2023/05/05 03:30:39;;;;;;;15.00;11.30;;;;;;;12.74;64.73;96307.69;4968333;28;20439;-69
2023/05/05 03:33:04;;;;;;;15.90;12.40;;;;;;;12.71;64.89;96308.72;4968413;28;20417;-69
2023/05/05 03:35:30;;;;;;;12.93;10.10;;;;;;;12.68;64.08;96311.50;4968252;28;20188;-70
2023/05/05 03:37:55;;;;;;;14.10;12.20;;;;;;;12.74;64.70;96317.38;4968314;28;20181;-68
2023/05/05 03:40:24;;;;;;;16.43;11.60;;;;;;;12.77;64.49;96314.56;4968080;28;20205;-70
2023/05/05 03:42:49;;;;;;;16.10;12.30;;;;;;;12.70;64.41;96322.78;4968495;28;20192;-71
2023/05/05 03:45:15;;;;;;;18.73;13.07;;;;;;;12.63;64.68;96323.22;4968378;28;20417;-69
2023/05/05 03:47:41;;;;;;;25.60;13.70;;;;;;;12.65;65.06;96316.06;4967839;28;20221;-72
2023/05/05 03:50:07;;;;;;;13.40;11.97;;;;;;;12.63;65.67;96318.78;4968177;28;20181;-71
2023/05/05 03:52:32;;;;;;;14.57;11.50;;;;;;;12.59;65.04;96319.03;4968241;28;20631;-69
2023/05/05 03:54:58;;;;;;;17.20;11.50;;;;;;;12.63;65.60;96320.56;4968161;28;20419;-68
2023/05/05 03:57:25;;;;;;;17.67;12.50;;;;;;;12.64;65.09;96325.75;4967702;28;20808;-70
2023/05/05 03:59:50;;;;;;;20.57;14.70;;;;;;;12.66;64.76;96334.44;4968658;28;20467;-69
2023/05/05 04:02:15;;;;;;;16.17;14.20;;;;;;;12.66;65.01;96323.91;4968222;28;20433;-70
2023/05/05 04:04:41;;;;;;;18.17;13.23;;;;;;;12.80;64.64;96319.66;4987595;28;20241;-72
2023/05/05 04:07:06;;;;;;;17.57;13.30;;;;;;;12.67;65.07;96315.06;4987090;28;20646;-69
2023/05/05 04:09:32;;;;;;;23.23;13.50;;;;;;;12.64;64.64;96331.03;4988731;28;20204;-68
2023/05/05 04:11:57;;;;;;;21.40;14.33;;;;;;;12.62;65.24;96325.00;4991120;28;20286;-70
2023/05/05 04:14:23;;;;;;;16.43;12.30;;;;;;;12.70;64.26;96324.56;4990994;28;20543;-69
2023/05/05 04:16:48;;;;;;;15.17;12.90;;;;;;;12.74;64.66;96327.91;4990844;28;20180;-68
2023/05/05 04:19:13;;;;;;;14.83;12.40;;;;;;;12.86;64.12;96327.25;4991040;28;20310;-70
2023/05/05 04:21:39;;;;;;;15.90;14.20;;;;;;;13.00;63.22;96329.13;4990922;28;20269;-69
2023/05/05 04:24:05;;;;;;;15.63;12.70;;;;;;;12.87;63.80;96323.66;4990851;28;20188;-70
2023/05/05 04:26:30;;;;;;;18.33;13.60;;;;;;;12.87;62.71;96324.53;4990571;28;20177;-68
2023/05/05 04:28:55;;;;;;;15.23;13.23;;;;;;;12.91;63.13;96325.22;4990733;28;20200;-71
2023/05/05 04:31:21;;;;;;;17.60;13.33;;;;;;;12.96;62.77;96335.50;5005672;28;20562;-71
2023/05/05 04:33:46;;;;;;;20.17;13.27;;;;;;;12.91;62.51;96330.47;4990995;28;20169;-70
2023/05/05 04:36:12;;;;;;;15.87;11.47;;;;;;;13.07;62.62;96333.13;4990295;28;20247;-67
2023/05/05 04:38:37;;;;;;;16.00;14.30;;;;;;;13.16;62.70;96335.25;4990626;28;20177;-69
2023/05/05 04:41:06;;;;;;;17.33;12.07;;;;;;;13.20;62.05;96331.50;4990294;28;20227;-68
2023/05/05 04:43:31;;;;;;;17.50;12.27;;;;;;;13.25;62.11;96339.16;5005364;28;20261;-73
2023/05/05 04:45:57;;;;;;;13.90;12.10;;;;;;;13.52;61.77;96337.66;4984087;28;20512;-69
2023/05/05 04:48:22;;;;;;;20.40;15.67;;;;;;;14.05;59.66;96338.13;4985888;28;20654;-71
2023/05/05 04:50:47;;;;;;;22.10;13.50;;;;;;;14.48;58.21;96342.63;4982109;28;20208;-68
2023/05/05 04:53:13;;;;;;;20.27;12.67;;;;;;;14.81;57.38;96339.75;4976829;28;20188;-69
2023/05/05 04:55:38;;;;;;;13.67;11.70;;;;;;;14.94;57.03;96337.22;4987124;28;20181;-70
2023/05/05 04:58:04;;;;;;;15.07;12.10;;;;;;;15.14;56.42;96342.13;4989786;28;20238;-67
2023/05/05 05:00:29;;;;;;;20.50;13.33;;;;;;;15.35;55.64;96342.50;4988552;28;20197;-69
2023/05/05 05:02:55;;;;;;;20.10;12.47;;;;;;;15.45;55.37;96338.34;4986385;28;20502;-68
2023/05/05 05:05:21;;;;;;;14.97;13.23;;;;;;;15.77;54.97;96338.06;4987491;28;20180;-70
2023/05/05 05:07:47;;;;;;;18.33;12.83;;;;;;;15.87;54.61;96333.91;4981101;28;20459;-70
2023/05/05 05:10:12;;;;;;;21.07;14.10;;;;;;;15.89;54.63;96341.72;4980590;28;20255;-69
2023/05/05 05:12:37;;;;;;;16.90;12.70;;;;;;;16.28;52.97;96338.22;4987513;28;20581;-70
2023/05/05 05:15:03;;;;;;;17.10;13.10;;;;;;;16.31;53.19;96339.81;4986356;28;20723;-69
2023/05/05 05:17:29;;;;;;;13.83;12.10;;;;;;;16.44;53.02;96345.09;4987862;28;20553;-71
2023/05/05 05:19:55;;;;;;;14.70;13.00;;;;;;;16.46;53.23;96337.91;4981519;28;20172;-69
2023/05/05 05:22:21;;;;;;;15.17;13.67;;;;;;;16.67;52.72;96341.72;4977382;28;20243;-72
2023/05/05 05:24:46;;;;;;;18.30;13.37;;;;;;;16.78;52.18;96338.34;4987152;28;20487;-70
2023/05/05 05:27:12;;;;;;;19.63;13.83;;;;;;;16.99;51.98;96330.72;4984563;28;20181;-69
2023/05/05 05:29:37;;;;;;;18.37;14.33;;;;;;;17.22;51.28;96337.03;4981581;28;20228;-70
2023/05/05 05:32:03;;;;;;;24.87;14.10;;;;;;;17.31;51.13;96330.22;4979968;28;20196;-70
2023/05/05 05:34:28;;;;;;;15.17;11.90;;;;;;;17.48;51.03;96332.50;4984486;28;20189;-72
2023/05/05 05:36:54;;;;;;;17.87;13.50;;;;;;;17.46;51.16;96333.59;4986145;28;20184;-68
2023/05/05 05:39:20;;;;;;;26.10;14.10;;;;;;;17.65;50.89;96335.75;4978674;28;20189;-68
2023/05/05 05:41:46;;;;;;;24.03;14.50;;;;;;;17.83;50.72;96334.41;4987435;28;20200;-73
2023/05/05 05:44:11;;;;;;;15.77;12.90;;;;;;;18.22;49.34;96324.41;4984525;28;20522;-69
2023/05/05 05:46:36;;;;;;;17.20;10.47;;;;;;;18.53;50.52;96332.72;4987278;28;20199;-68
2023/05/05 05:49:02;;;;;;;24.27;13.20;;;;;;;18.88;49.07;96330.00;4985020;28;20213;-67
2023/05/05 05:51:27;;;;;;;47.40;18.30;;;;;;;19.04;47.87;96322.50;4985625;28;20200;-68
2023/05/05 05:53:53;;;;;;;25.47;12.53;;;;;;;19.44;47.25;96324.66;4982136;28;20219;-69
2023/05/05 05:56:18;;;;;;;16.83;13.57;;;;;;;19.58;47.88;96328.00;4985793;28;20177;-71
2023/05/05 05:58:44;;;;;;;30.10;14.07;;;;;;;19.63;46.99;96334.66;4986981;28;20255;-72
2023/05/05 06:01:09;;;;;;;28.30;13.93;;;;;;;19.74;47.11;96331.13;4986163;28;20201;-69
2023/05/05 06:03:35;;;;;;;19.20;13.60;;;;;;;19.61;46.71;96323.28;4983340;28;20454;-68
2023/05/05 06:06:00;;;;;;;18.23;12.60;;;;;;;19.74;46.76;96339.13;4986580;28;20212;-67
2023/05/05 06:08:26;;;;;;;13.50;12.20;;;;;;;19.62;46.86;96329.44;4982981;28;20258;-70
2023/05/05 06:10:51;;;;;;;13.90;12.50;;;;;;;19.76;46.82;96339.00;4986944;28;20184;-68
2023/05/05 06:13:17;;;;;;;14.17;12.67;;;;;;;19.82;46.57;96339.34;4986099;28;20506;-70
2023/05/05 06:15:42;;;;;;;14.93;13.37;;;;;;;19.91;46.31;96335.06;4979030;28;20242;-70
2023/05/05 06:18:08;;;;;;;20.00;12.47;;;;;;;19.97;46.17;96339.91;4983899;28;20662;-66
2023/05/05 06:20:33;;;;;;;16.00;12.97;;;;;;;19.64;46.86;96344.31;4983188;28;20196;-69
2023/05/05 06:22:59;;;;;;;15.37;11.60;;;;;;;19.65;47.12;96340.72;4978234;28;21010;-69
2023/05/05 06:25:25;;;;;;;15.57;12.07;;;;;;;19.84;46.48;96341.88;4979488;28;20232;-68
2023/05/05 06:27:50;;;;;;;17.40;12.00;;;;;;;20.06;45.90;96341.81;4982737;28;21016;-69
2023/05/05 06:30:16;;;;;;;12.67;11.37;;;;;;;20.09;45.85;96341.53;4983807;28;20247;-68
2023/05/05 06:32:42;;;;;;;14.30;12.90;;;;;;;20.03;45.95;96335.88;4981826;28;20181;-65
2023/05/05 06:35:08;;;;;;;17.63;12.97;;;;;;;20.29;45.49;96328.38;4984605;28;20470;-70
2023/05/05 06:37:33;;;;;;;22.13;13.77;;;;;;;20.65;45.00;96324.44;4984710;28;20177;-70
2023/05/05 06:39:58;;;;;;;23.30;12.80;;;;;;;20.87;44.13;96320.75;4982318;28;21190;-69
2023/05/05 06:42:24;;;;;;;17.63;11.97;;;;;;;20.92;44.46;96331.88;4983236;28;20173;-70
2023/05/05 06:44:50;;;;;;;15.50;12.80;;;;;;;20.98;44.42;96324.34;4982762;28;20874;-71
2023/05/05 06:47:15;;;;;;;13.83;11.30;;;;;;;21.00;44.62;96333.03;4984548;28;20267;-69
2023/05/05 06:49:40;;;;;;;13.23;11.20;;;;;;;21.19;44.14;96329.59;4988345;28;20232;-68
2023/05/05 06:52:07;;;;;;;13.00;11.63;;;;;;;21.13;44.48;96334.50;4983364;28;20546;-70
2023/05/05 06:54:32;;;;;;;13.80;11.80;;;;;;;21.22;44.19;96329.34;4983315;28;20204;-67
2023/05/05 06:56:58;;;;;;;13.07;11.83;;;;;;;21.21;44.20;96331.16;4982457;28;20503;-68
2023/05/05 06:59:23;;;;;;;13.63;12.23;;;;;;;21.34;44.26;96334.44;4983656;28;20172;-69
2023/05/05 07:01:49;;;;;;;15.80;12.10;;;;;;;21.60;43.81;96334.00;4984769;28;20234;-69
2023/05/05 07:04:15;;;;;;;15.63;11.10;;;;;;;21.65;43.78;96330.91;4984910;28;20625;-68
2023/05/05 07:06:40;;;;;;;23.63;12.63;;;;;;;21.87;43.33;96336.00;4984421;28;20443;-68
2023/05/05 07:09:06;;;;;;;15.93;13.13;;;;;;;21.92;43.20;96335.56;4983703;28;20201;-69
2023/05/05 07:11:31;;;;;;;29.27;11.33;;;;;;;21.35;44.22;96344.16;4980696;28;20243;-69
2023/05/05 07:13:57;;;;;;;16.23;12.60;;;;;;;21.02;45.05;96347.09;4983272;28;20177;-69
2023/05/05 07:16:23;;;;;;;10.80;9.70;;;;;;;20.93;45.27;96343.41;4984330;28;20208;-69
2023/05/05 07:18:49;;;;;;;13.27;11.70;;;;;;;20.75;45.59;96350.31;4978027;28;20218;-68
2023/05/05 07:21:14;;;;;;;11.90;9.80;;;;;;;20.52;46.43;96355.75;4985906;28;20491;-69
2023/05/05 07:23:40;;;;;;;12.00;10.53;;;;;;;20.29;46.91;96355.88;4981553;28;20264;-69
2023/05/05 07:26:05;;;;;;;12.00;10.57;;;;;;;20.25;47.51;96356.25;4980958;28;21039;-68
2023/05/05 07:28:30;;;;;;;14.67;10.40;;;;;;;20.15;47.93;96358.00;4982814;28;20197;-70
2023/05/05 07:30:56;;;;;;;14.73;11.90;;;;;;;19.97;48.36;96365.69;5001625;28;20197;-70
2023/05/05 07:33:21;;;;;;;15.80;12.00;;;;;;;19.63;49.28;96368.41;4987984;28;20161;-69
2023/05/05 07:35:47;;;;;;;12.57;11.27;;;;;;;19.43;49.74;96360.19;4987634;28;20172;-68
2023/05/05 07:38:12;;;;;;;18.77;10.63;;;;;;;19.37;50.49;96362.50;4986955;28;20594;-68
2023/05/05 07:40:38;;;;;;;14.63;10.73;;;;;;;19.13;51.09;96366.13;4974736;28;20201;-69
2023/05/05 07:43:03;;;;;;;16.37;11.77;;;;;;;19.07;51.56;96356.00;4973627;28;20176;-69
2023/05/05 07:45:30;;;;;;;13.77;11.50;;;;;;;19.04;51.93;96358.91;4986732;28;20205;-70
2023/05/05 07:47:56;;;;;;;22.43;13.03;;;;;;;18.80;52.48;96357.19;4983483;28;20675;-70
2023/05/05 07:50:22;;;;;;;14.17;11.67;;;;;;;18.90;52.29;96356.47;4980952;28;20497;-71
2023/05/05 07:52:47;;;;;;;19.30;12.30;;;;;;;18.98;52.08;96362.03;4995535;28;20181;-70
2023/05/05 07:55:13;;;;;;;13.87;12.57;;;;;;;19.06;51.89;96359.63;4990959;28;20420;-68
2023/05/05 07:57:38;;;;;;;20.23;12.13;;;;;;;19.08;51.90;96359.50;4985883;28;20173;-70
2023/05/05 08:00:04;;;;;;;15.40;12.17;;;;;;;19.02;52.33;96358.19;4983424;28;20715;-72
2023/05/05 08:02:30;;;;;;;22.27;12.30;;;;;;;18.84;52.88;96352.47;5003155;28;20185;-69
2023/05/05 08:04:55;;;;;;;19.30;12.03;;;;;;;18.85;52.97;96350.66;4996357;28;20432;-72
2023/05/05 08:07:21;;;;;;;14.80;12.47;;;;;;;18.77;53.50;96349.44;4999587;28;20181;-71
2023/05/05 08:09:46;;;;;;;19.40;13.40;;;;;;;18.91;52.99;96345.72;4989178;28;20259;-70
2023/05/05 08:12:13;;;;;;;21.63;12.70;;;;;;;19.27;52.18;96345.59;4993765;28;20200;-69
2023/05/05 08:14:39;;;;;;;16.17;12.70;;;;;;;19.94;50.82;96345.50;4994068;28;20290;-69
2023/05/05 08:17:05;;;;;;;15.03;12.00;;;;;;;20.57;49.36;96347.41;4988988;28;21329;-69
2023/05/05 08:19:30;;;;;;;16.47;11.30;;;;;;;20.76;48.68;96339.50;4986465;28;20183;-70
2023/05/05 08:21:56;;;;;;;12.60;11.40;;;;;;;20.88;48.37;96334.94;4990637;28;20248;-69
2023/05/05 08:24:21;;;;;;;15.03;10.43;;;;;;;21.35;47.60;96333.47;4982202;28;20173;-69
2023/05/05 08:26:47;;;;;;;27.00;12.30;;;;;;;21.63;46.85;96340.88;4979858;28;20177;-70
2023/05/05 08:29:12;;;;;;;14.80;10.77;;;;;;;21.34;48.13;96341.63;4980262;28;20209;-70
2023/05/05 08:31:38;;;;;;;22.23;11.77;;;;;;;21.28;48.27;96348.34;4981061;28;20193;-69
2023/05/05 08:34:04;;;;;;;18.90;11.83;;;;;;;21.30;48.12;96346.38;4980616;28;20197;-71
2023/05/05 08:36:30;;;;;;;18.83;12.47;;;;;;;21.14;48.76;96340.69;4987832;28;20567;-70
2023/05/05 08:38:55;;;;;;;12.80;11.43;;;;;;;21.52;48.12;96344.50;4991837;28;20407;-70
2023/05/05 08:41:21;;;;;;;14.73;10.93;;;;;;;21.54;48.25;96346.06;4990193;28;20736;-70
2023/05/05 08:43:48;;;;;;;19.27;11.83;;;;;;;22.08;47.03;96340.38;4998997;28;20797;-69
2023/05/05 08:46:14;;;;;;;15.33;11.57;;;;;;;22.56;45.81;96340.41;5009421;28;20537;-70
2023/05/05 08:48:42;;;;;;;12.43;10.40;;;;;;;22.85;44.77;96344.84;5007735;28;20455;-70
2023/05/05 08:51:12;;;;;;;19.83;9.90;;;;;;;22.83;44.37;96336.09;4999742;28;20439;-69
2023/05/05 08:53:49;;;;;;;15.30;9.57;;;;;;;22.80;43.96;96339.94;4992288;28;20916;-69
2023/05/05 08:56:15;;;;;;;15.43;8.43;;;;;;;22.45;44.76;96337.03;4991369;28;20780;-70
2023/05/05 08:58:42;;;;;;;17.03;9.80;;;;;;;22.34;45.61;96343.34;4991309;28;20410;-69
2023/05/05 09:01:09;;;;;;;6.70;4.70;;;;;;;22.06;42.34;96340.50;4989800;28;20193;-69
2023/05/05 09:03:36;;;;;;;10.03;4.30;;;;;;;22.17;42.07;96350.22;4993751;28;20461;-70
2023/05/05 09:06:02;;;;;;;7.50;3.17;;;;;;;22.00;42.04;96351.78;4998748;28;20428;-70
2023/05/05 09:08:28;;;;;;;14.07;3.60;;;;;;;21.96;42.00;96356.53;5009092;28;20754;-70
2023/05/05 09:10:54;;;;;;;3.63;3.33;;;;;;;21.90;42.14;96350.94;5010419;28;20427;-70
2023/05/05 09:13:19;;;;;;;11.43;4.47;;;;;;;21.85;42.17;96350.47;5009335;28;20210;-69
2023/05/05 09:15:45;;;;;;;7.13;3.83;;;;;;;21.86;42.71;96347.66;4997740;28;20502;-70
2023/05/05 09:18:11;;;;;;;4.97;3.70;;;;;;;21.92;42.89;96351.59;4994355;28;20173;-69
2023/05/05 09:20:39;;;;;;;9.03;4.10;;;;;;;22.11;42.67;96346.31;4997692;28;20193;-67
2023/05/05 09:23:08;;;;;;;13.20;4.03;;;;;;;22.32;42.36;96353.34;5009081;28;20543;-68
2023/05/05 09:25:34;;;;;;;4.20;3.23;;;;;;;22.47;40.68;96337.75;5009020;28;20462;-68
2023/05/05 09:28:08;;;;;;;4.57;3.73;;;;;;;22.84;40.29;96343.13;5008829;28;20454;-68
2023/05/05 09:30:34;;;;;;;6.00;3.37;;;;;;;23.02;39.78;96346.78;5009215;28;20211;-68
2023/05/05 09:33:01;;;;;;;5.93;3.10;;;;;;;23.31;39.65;96335.13;5009204;28;20418;-71
2023/05/05 09:35:26;;;;;;;5.70;3.80;;;;;;;23.29;39.05;96337.09;5008768;28;20411;-69
2023/05/05 09:37:52;;;;;;;6.63;3.90;;;;;;;23.35;39.36;96336.53;5008475;28;20410;-68
2023/05/05 09:40:18;;;;;;;8.40;3.40;;;;;;;23.40;39.75;96341.44;5008127;28;20180;-70
2023/05/05 09:42:44;;;;;;;6.53;3.90;;;;;;;23.64;39.50;96322.13;5008602;28;20178;-70
2023/05/05 09:45:25;;;;;;;6.10;3.47;;;;;;;23.41;39.85;96322.53;5008555;28;20407;-70
2023/05/05 09:47:51;;;;;;;6.60;3.37;;;;;;;23.18;39.75;96318.56;5008424;28;20521;-71
2023/05/05 09:50:20;;;;;;;14.17;4.23;;;;;;;23.41;39.20;96319.88;5008186;28;20823;-70
2023/05/05 09:52:59;;;;;;;15.47;4.40;;;;;;;23.64;39.34;96316.75;5008334;28;20222;-69
2023/05/05 09:55:25;;;;;;;5.13;2.93;;;;;;;23.60;40.00;96315.41;5008246;28;20765;-69
2023/05/05 09:57:50;;;;;;;6.60;3.67;;;;;;;23.75;39.58;96321.13;5008191;28;20434;-69
2023/05/05 10:00:16;;;;;;;9.20;3.10;;;;;;;23.68;39.20;96316.31;5008051;28;20246;-70
2023/05/05 10:02:41;;;;;;;8.90;4.10;;;;;;;23.76;39.45;96318.25;5004578;28;20653;-70
2023/05/05 10:05:12;;;;;;;4.07;3.60;;;;;;;23.75;38.85;96327.31;4988531;28;20546;-70
2023/05/05 10:07:40;;;;;;;4.30;3.20;;;;;;;24.12;38.31;96331.72;4987617;28;20580;-71
2023/05/05 10:10:10;;;;;;;3.87;3.40;;;;;;;24.38;38.03;96328.22;4991077;28;21109;-70
2023/05/05 10:12:37;;;;;;;5.00;3.00;;;;;;;24.14;37.47;96323.50;4988817;28;21122;-70
2023/05/05 10:15:07;;;;;;;19.00;4.83;;;;;;;24.12;38.27;96322.81;4987964;28;20408;-69
2023/05/05 10:17:44;;;;;;;12.80;4.20;;;;;;;24.46;38.18;96315.78;4988462;28;20416;-71
2023/05/05 10:20:12;;;;;;;4.00;3.40;;;;;;;24.52;37.70;96308.97;4988529;28;20935;-70
2023/05/05 10:22:41;;;;;;;11.00;4.10;;;;;;;24.46;37.99;96310.41;4988549;28;21050;-71
2023/05/05 10:25:12;;;;;;;8.10;3.10;;;;;;;24.36;38.85;96303.44;4988432;28;20408;-71
2023/05/05 10:27:51;;;;;;;8.60;3.90;;;;;;;24.13;39.00;96309.25;5004952;28;20433;-70
2023/05/05 10:30:23;;;;;;;6.20;4.20;;;;;;;24.10;38.57;96293.50;5007783;28;20442;-69
2023/05/05 10:33:08;;;;;;;5.30;3.00;;;;;;;24.05;38.21;96293.94;5007835;28;20849;-71
2023/05/05 10:35:39;;;;;;;10.40;2.87;;;;;;;23.42;38.60;96288.56;5007165;28;20490;-71
2023/05/05 10:38:08;;;;;;;6.00;3.20;;;;;;;23.30;39.48;96304.00;5007441;28;20419;-70
2023/05/05 10:40:34;;;;;;;12.73;3.90;;;;;;;23.51;38.69;96294.88;5007291;28;20822;-70
2023/05/05 10:42:59;;;;;;;3.87;2.70;;;;;;;23.41;38.68;96298.44;5007656;28;20403;-70
2023/05/05 10:45:25;;;;;;;4.30;2.73;;;;;;;23.19;39.23;96293.47;5007425;28;20186;-70
2023/05/05 10:47:52;;;;;;;6.43;4.20;;;;;;;22.91;40.57;96297.91;5007137;28;20214;-71
2023/05/05 10:50:29;;;;;;;4.40;3.13;;;;;;;23.13;39.81;96294.91;5007139;28;20177;-71
2023/05/05 10:53:19;;;;;;;3.17;2.70;;;;;;;23.58;37.83;96288.75;5007724;28;20415;-71
2023/05/05 10:56:06;;;;;;;7.67;3.90;;;;;;;23.87;37.45;96288.56;4990738;28;20443;-70
2023/05/05 10:58:36;;;;;;;24.23;4.17;;;;;;;24.17;36.65;96281.16;4995672;28;20435;-72
2023/05/05 11:01:03;;;;;;;8.20;3.50;;;;;;;24.21;36.12;96285.22;4996718;28;20435;-69
2023/05/05 11:03:29;;;;;;;9.73;3.03;;;;;;;24.17;37.09;96283.84;4979065;28;20412;-69
2023/05/05 11:06:03;;;;;;;4.60;2.43;;;;;;;24.28;36.87;96275.56;4989335;28;20422;-69
2023/05/05 11:08:34;;;;;;;7.40;3.30;;;;;;;23.86;37.74;96270.81;4987754;28;20230;-70
2023/05/05 11:11:00;;;;;;;4.67;2.70;;;;;;;23.98;37.73;96265.25;4986009;28;20463;-70
2023/05/05 11:13:26;;;;;;;6.57;2.83;;;;;;;23.83;37.20;96268.41;4983375;28;20435;-68
2023/05/05 11:15:56;;;;;;;9.93;2.90;;;;;;;23.69;36.23;96274.28;4986890;28;20651;-68
2023/05/05 11:18:37;;;;;;;3.80;2.77;;;;;;;23.80;37.02;96266.06;4984576;28;21390;-70
2023/05/05 11:21:02;;;;;;;4.20;2.63;;;;;;;24.12;36.76;96256.66;4990587;28;20462;-69
2023/05/05 11:23:29;;;;;;;6.30;2.97;;;;;;;24.42;35.74;96252.66;4987280;28;20450;-71